• pl
  • eng

Awiacja
Click on the bold red name to decode a message. 01:00 01.01.1970

METAR EPBY 230800Z 11006KT 2700 BR OVC022 M08/M09 Q1009 =

METAR EPGD 230800Z 12006KT 2200 BR NSC M09/M10 Q1010 =

METAR EPKK 230800Z 07009KT 6000 SCT006 BKN009 M04/M06 Q1005 =

METAR EPKT 230800Z 09009KT 7000 OVC007 M05/M07 Q1005 =

METAR EPLB 230800Z 09012KT 9999 OVC014 M05/M07 Q1008 =

METAR EPLL 230800Z 10008KT 080V150 9999 OVC013 M04/M07 Q1007 =

METAR EPMO 230800Z 08009KT 5000 -SN BR BKN029 M06/M08 Q1010 =

METAR EPPO 230800Z 13015KT 9999 OVC014 M06/M08 Q1007 =

METAR EPRA 230800Z 11010KT 9999 BKN015 M04/M06 Q1008=

METAR EPRZ 230800Z 07010KT 9999 OVC010 M06/M08 Q1006 =

METAR EPSC 230800Z 12012KT 6000 NSC M07/M09 Q1007 =

METAR EPSY 230800Z 06004KT 020V090 5000 BR NSC M09/M11 Q1011=

METAR EPWA 230800Z 10010KT 9999 -SN BKN034 M04/M06 Q1009 NOSIG=

METAR EPWR 230800Z 12011KT 4000 -SG DRSN BR OVC005 M08/M09 Q1006 =

METAR EPZG 230800Z 08008KT 050V110 1800 BR OVC006 M07/M08 Q1007 =
Awiacja.imgw.pl jest pogodowym serwisem informacyjnym
Instytutu Meteorologii i Gospodarki Wodnej Państwowego Instytutu Badawczego.
Copyright IMGW PIB 2009-2011© Wszelkie prawa zastrzeżone.